sensor_id;sensor_type;location;lat;lon;timestamp;temperature;humidity
59303;DHT22;45074;52.764;6.896;2022-08-14T00:00:52;22.80;81.70
59303;DHT22;45074;52.764;6.896;2022-08-14T00:03:22;22.70;81.90
59303;DHT22;45074;52.764;6.896;2022-08-14T00:05:49;22.70;82.00
59303;DHT22;45074;52.764;6.896;2022-08-14T00:08:15;22.70;81.80
59303;DHT22;45074;52.764;6.896;2022-08-14T00:10:41;22.60;82.20
59303;DHT22;45074;52.764;6.896;2022-08-14T00:13:08;22.60;82.50
59303;DHT22;45074;52.764;6.896;2022-08-14T00:15:37;21.70;96.80
59303;DHT22;45074;52.764;6.896;2022-08-14T00:18:06;22.20;96.50
59303;DHT22;45074;52.764;6.896;2022-08-14T00:20:34;22.10;96.50
59303;DHT22;45074;52.764;6.896;2022-08-14T00:23:00;22.10;96.30
59303;DHT22;45074;52.764;6.896;2022-08-14T00:25:27;22.90;96.40
59303;DHT22;45074;52.764;6.896;2022-08-14T00:27:54;21.80;92.80
59303;DHT22;45074;52.764;6.896;2022-08-14T00:30:20;22.30;83.70
59303;DHT22;45074;52.764;6.896;2022-08-14T00:32:45;20.40;95.40
59303;DHT22;45074;52.764;6.896;2022-08-14T00:35:11;20.60;96.60
59303;DHT22;45074;52.764;6.896;2022-08-14T00:37:41;22.10;97.00
59303;DHT22;45074;52.764;6.896;2022-08-14T00:40:09;22.00;81.90
59303;DHT22;45074;52.764;6.896;2022-08-14T00:42:35;22.00;82.00
59303;DHT22;45074;52.764;6.896;2022-08-14T00:45:00;22.40;94.10
59303;DHT22;45074;52.764;6.896;2022-08-14T00:47:26;22.00;82.00
59303;DHT22;45074;52.764;6.896;2022-08-14T00:49:53;21.90;82.10
59303;DHT22;45074;52.764;6.896;2022-08-14T00:52:21;21.90;82.30
59303;DHT22;45074;52.764;6.896;2022-08-14T00:54:49;21.80;99.90
59303;DHT22;45074;52.764;6.896;2022-08-14T00:57:18;21.80;82.80
59303;DHT22;45074;52.764;6.896;2022-08-14T00:59:44;21.80;99.70
59303;DHT22;45074;52.764;6.896;2022-08-14T01:02:11;21.60;97.90
59303;DHT22;45074;52.764;6.896;2022-08-14T01:04:39;22.20;98.40
59303;DHT22;45074;52.764;6.896;2022-08-14T01:07:05;20.90;98.70
59303;DHT22;45074;52.764;6.896;2022-08-14T01:09:31;21.60;83.60
59303;DHT22;45074;52.764;6.896;2022-08-14T01:11:58;23.00;99.90
59303;DHT22;45074;52.764;6.896;2022-08-14T01:14:24;21.70;83.30
59303;DHT22;45074;52.764;6.896;2022-08-14T01:16:50;21.70;98.00
59303;DHT22;45074;52.764;6.896;2022-08-14T01:19:16;21.40;97.50
59303;DHT22;45074;52.764;6.896;2022-08-14T01:22:00;22.10;97.60
59303;DHT22;45074;52.764;6.896;2022-08-14T01:24:27;22.00;97.50
59303;DHT22;45074;52.764;6.896;2022-08-14T01:26:52;22.00;96.90
59303;DHT22;45074;52.764;6.896;2022-08-14T01:29:19;21.20;95.90
59303;DHT22;45074;52.764;6.896;2022-08-14T01:31:45;20.70;96.40
59303;DHT22;45074;52.764;6.896;2022-08-14T01:34:14;21.50;83.80
59303;DHT22;45074;52.764;6.896;2022-08-14T01:36:40;21.60;96.70
59303;DHT22;45074;52.764;6.896;2022-08-14T01:39:14;21.60;96.60
59303;DHT22;45074;52.764;6.896;2022-08-14T01:41:43;20.90;96.60
59303;DHT22;45074;52.764;6.896;2022-08-14T01:44:13;19.80;96.00
59303;DHT22;45074;52.764;6.896;2022-08-14T01:46:41;20.60;96.60
59303;DHT22;45074;52.764;6.896;2022-08-14T01:49:11;21.30;96.60
59303;DHT22;45074;52.764;6.896;2022-08-14T01:51:39;21.10;96.20
59303;DHT22;45074;52.764;6.896;2022-08-14T01:54:07;20.10;96.30
59303;DHT22;45074;52.764;6.896;2022-08-14T01:56:34;20.70;96.50
59303;DHT22;45074;52.764;6.896;2022-08-14T01:59:04;21.10;95.40
59303;DHT22;45074;52.764;6.896;2022-08-14T02:01:30;22.00;96.90
59303;DHT22;45074;52.764;6.896;2022-08-14T02:03:56;21.00;96.80
59303;DHT22;45074;52.764;6.896;2022-08-14T02:06:22;21.70;96.80
59303;DHT22;45074;52.764;6.896;2022-08-14T02:11:14;20.70;96.70
59303;DHT22;45074;52.764;6.896;2022-08-14T02:13:58;21.20;96.90
59303;DHT22;45074;52.764;6.896;2022-08-14T02:16:27;21.00;97.40
59303;DHT22;45074;52.764;6.896;2022-08-14T02:18:58;21.20;97.00
59303;DHT22;45074;52.764;6.896;2022-08-14T02:21:26;21.20;97.00
59303;DHT22;45074;52.764;6.896;2022-08-14T02:23:54;21.10;87.40
59303;DHT22;45074;52.764;6.896;2022-08-14T02:26:27;20.50;97.00
59303;DHT22;45074;52.764;6.896;2022-08-14T02:28:58;21.10;94.50
59303;DHT22;45074;52.764;6.896;2022-08-14T02:31:28;21.20;97.60
59303;DHT22;45074;52.764;6.896;2022-08-14T02:34:13;21.30;97.70
59303;DHT22;45074;52.764;6.896;2022-08-14T02:36:40;20.90;88.20
59303;DHT22;45074;52.764;6.896;2022-08-14T02:39:08;20.40;97.70
59303;DHT22;45074;52.764;6.896;2022-08-14T02:41:34;22.20;98.20
59303;DHT22;45074;52.764;6.896;2022-08-14T02:44:02;20.50;97.90
59303;DHT22;45074;52.764;6.896;2022-08-14T02:46:28;21.10;98.10
59303;DHT22;45074;52.764;6.896;2022-08-14T02:48:55;20.90;97.80
59303;DHT22;45074;52.764;6.896;2022-08-14T02:53:47;21.00;98.30
59303;DHT22;45074;52.764;6.896;2022-08-14T02:56:15;21.00;90.30
59303;DHT22;45074;52.764;6.896;2022-08-14T02:58:44;22.10;99.00
59303;DHT22;45074;52.764;6.896;2022-08-14T03:01:15;20.80;90.10
59303;DHT22;45074;52.764;6.896;2022-08-14T03:03:41;21.00;94.80
59303;DHT22;45074;52.764;6.896;2022-08-14T03:06:09;20.50;98.70
59303;DHT22;45074;52.764;6.896;2022-08-14T03:08:36;21.30;92.50
59303;DHT22;45074;52.764;6.896;2022-08-14T03:11:03;20.30;98.80
59303;DHT22;45074;52.764;6.896;2022-08-14T03:13:36;20.50;91.60
59303;DHT22;45074;52.764;6.896;2022-08-14T03:16:03;20.70;90.40
59303;DHT22;45074;52.764;6.896;2022-08-14T03:18:29;21.00;99.20
59303;DHT22;45074;52.764;6.896;2022-08-14T03:23:21;21.00;99.20
59303;DHT22;45074;52.764;6.896;2022-08-14T03:25:47;21.20;99.50
59303;DHT22;45074;52.764;6.896;2022-08-14T03:28:13;20.80;99.60
59303;DHT22;45074;52.764;6.896;2022-08-14T03:30:39;20.80;99.70
59303;DHT22;45074;52.764;6.896;2022-08-14T03:33:07;20.70;91.10
59303;DHT22;45074;52.764;6.896;2022-08-14T03:35:33;20.80;93.00
59303;DHT22;45074;52.764;6.896;2022-08-14T03:38:10;21.20;99.90
59303;DHT22;45074;52.764;6.896;2022-08-14T03:40:38;20.20;99.70
59303;DHT22;45074;52.764;6.896;2022-08-14T03:43:07;20.60;99.90
59303;DHT22;45074;52.764;6.896;2022-08-14T03:45:35;18.70;99.70
59303;DHT22;45074;52.764;6.896;2022-08-14T03:48:14;22.00;99.90
59303;DHT22;45074;52.764;6.896;2022-08-14T03:50:44;20.60;91.80
59303;DHT22;45074;52.764;6.896;2022-08-14T03:53:11;20.70;99.90
59303;DHT22;45074;52.764;6.896;2022-08-14T03:55:42;21.10;99.80
59303;DHT22;45074;52.764;6.896;2022-08-14T03:58:08;19.90;99.90
59303;DHT22;45074;52.764;6.896;2022-08-14T04:00:35;19.60;99.90
59303;DHT22;45074;52.764;6.896;2022-08-14T04:03:03;20.00;99.90
59303;DHT22;45074;52.764;6.896;2022-08-14T04:05:36;20.40;92.60
59303;DHT22;45074;52.764;6.896;2022-08-14T04:08:06;20.20;94.00
59303;DHT22;45074;52.764;6.896;2022-08-14T04:13:00;19.20;96.20
59303;DHT22;45074;52.764;6.896;2022-08-14T04:15:26;20.80;99.90
59303;DHT22;45074;52.764;6.896;2022-08-14T04:17:52;20.30;93.00
59303;DHT22;45074;52.764;6.896;2022-08-14T04:20:19;19.10;99.70
59303;DHT22;45074;52.764;6.896;2022-08-14T04:22:45;20.90;99.90
59303;DHT22;45074;52.764;6.896;2022-08-14T04:25:11;19.80;99.90
59303;DHT22;45074;52.764;6.896;2022-08-14T04:27:36;20.90;99.90
59303;DHT22;45074;52.764;6.896;2022-08-14T04:30:03;20.20;93.40
59303;DHT22;45074;52.764;6.896;2022-08-14T04:32:30;20.60;97.80
59303;DHT22;45074;52.764;6.896;2022-08-14T04:34:59;20.50;99.90
59303;DHT22;45074;52.764;6.896;2022-08-14T04:37:25;20.70;99.90
59303;DHT22;45074;52.764;6.896;2022-08-14T04:40:10;20.90;99.90
59303;DHT22;45074;52.764;6.896;2022-08-14T04:42:55;20.20;93.70
59303;DHT22;45074;52.764;6.896;2022-08-14T04:45:40;20.50;99.90
59303;DHT22;45074;52.764;6.896;2022-08-14T04:48:11;19.80;99.90
59303;DHT22;45074;52.764;6.896;2022-08-14T04:50:45;20.10;94.00
59303;DHT22;45074;52.764;6.896;2022-08-14T04:53:16;20.90;99.90
59303;DHT22;45074;52.764;6.896;2022-08-14T04:55:43;21.40;99.90
59303;DHT22;45074;52.764;6.896;2022-08-14T04:58:17;20.10;99.90
59303;DHT22;45074;52.764;6.896;2022-08-14T05:00:47;20.60;99.90
59303;DHT22;45074;52.764;6.896;2022-08-14T05:03:22;20.80;99.90
59303;DHT22;45074;52.764;6.896;2022-08-14T05:05:50;19.20;99.90
59303;DHT22;45074;52.764;6.896;2022-08-14T05:08:16;20.60;99.90
59303;DHT22;45074;52.764;6.896;2022-08-14T05:10:44;20.00;99.90
59303;DHT22;45074;52.764;6.896;2022-08-14T05:13:11;19.90;99.90
59303;DHT22;45074;52.764;6.896;2022-08-14T05:15:40;19.90;99.90
59303;DHT22;45074;52.764;6.896;2022-08-14T05:18:13;21.70;99.90
59303;DHT22;45074;52.764;6.896;2022-08-14T05:20:40;19.60;99.90
59303;DHT22;45074;52.764;6.896;2022-08-14T05:23:09;21.10;97.20
59303;DHT22;45074;52.764;6.896;2022-08-14T05:25:35;19.80;99.90
59303;DHT22;45074;52.764;6.896;2022-08-14T05:30:32;20.00;99.90
59303;DHT22;45074;52.764;6.896;2022-08-14T05:32:58;19.90;99.90
59303;DHT22;45074;52.764;6.896;2022-08-14T05:35:25;20.80;99.90
59303;DHT22;45074;52.764;6.896;2022-08-14T05:40:18;20.40;95.20
59303;DHT22;45074;52.764;6.896;2022-08-14T05:42:44;20.90;99.90
59303;DHT22;45074;52.764;6.896;2022-08-14T05:47:40;20.80;99.90
59303;DHT22;45074;52.764;6.896;2022-08-14T05:50:08;19.20;99.90
59303;DHT22;45074;52.764;6.896;2022-08-14T05:52:34;20.70;99.90
59303;DHT22;45074;52.764;6.896;2022-08-14T05:54:59;20.60;95.50
59303;DHT22;45074;52.764;6.896;2022-08-14T05:57:25;21.50;99.90
59303;DHT22;45074;52.764;6.896;2022-08-14T05:59:51;21.90;99.90
59303;DHT22;45074;52.764;6.896;2022-08-14T06:02:17;21.00;99.90
59303;DHT22;45074;52.764;6.896;2022-08-14T06:04:42;20.80;99.90
59303;DHT22;45074;52.764;6.896;2022-08-14T06:07:15;20.50;99.90
59303;DHT22;45074;52.764;6.896;2022-08-14T06:09:41;22.00;99.90
59303;DHT22;45074;52.764;6.896;2022-08-14T06:12:08;21.60;99.90
59303;DHT22;45074;52.764;6.896;2022-08-14T06:14:34;20.70;99.90
59303;DHT22;45074;52.764;6.896;2022-08-14T06:17:00;21.10;99.90
59303;DHT22;45074;52.764;6.896;2022-08-14T06:19:25;20.80;99.90
59303;DHT22;45074;52.764;6.896;2022-08-14T06:21:51;21.60;99.90
59303;DHT22;45074;52.764;6.896;2022-08-14T06:24:16;20.80;99.90
59303;DHT22;45074;52.764;6.896;2022-08-14T06:26:43;22.00;99.90
59303;DHT22;45074;52.764;6.896;2022-08-14T06:31:35;21.60;99.90
59303;DHT22;45074;52.764;6.896;2022-08-14T06:34:01;20.60;99.90
59303;DHT22;45074;52.764;6.896;2022-08-14T06:36:27;21.80;99.90
59303;DHT22;45074;52.764;6.896;2022-08-14T06:38:53;22.40;99.90
59303;DHT22;45074;52.764;6.896;2022-08-14T06:41:20;21.20;99.90
59303;DHT22;45074;52.764;6.896;2022-08-14T06:43:47;22.70;99.90
59303;DHT22;45074;52.764;6.896;2022-08-14T06:46:13;23.90;99.90
59303;DHT22;45074;52.764;6.896;2022-08-14T06:48:39;23.30;99.60
59303;DHT22;45074;52.764;6.896;2022-08-14T06:51:05;25.90;99.70
59303;DHT22;45074;52.764;6.896;2022-08-14T06:53:31;21.80;98.20
59303;DHT22;45074;52.764;6.896;2022-08-14T06:55:57;22.90;98.10
59303;DHT22;45074;52.764;6.896;2022-08-14T06:58:22;23.30;91.70
59303;DHT22;45074;52.764;6.896;2022-08-14T07:00:48;23.40;91.40
59303;DHT22;45074;52.764;6.896;2022-08-14T07:03:32;24.30;97.60
59303;DHT22;45074;52.764;6.896;2022-08-14T07:06:17;24.90;97.40
59303;DHT22;45074;52.764;6.896;2022-08-14T07:08:43;24.40;97.10
59303;DHT22;45074;52.764;6.896;2022-08-14T07:11:10;23.60;96.70
59303;DHT22;45074;52.764;6.896;2022-08-14T07:18:31;24.40;99.90
59303;DHT22;45074;52.764;6.896;2022-08-14T07:20:58;24.60;99.90
59303;DHT22;45074;52.764;6.896;2022-08-14T07:23:25;24.60;88.10
59303;DHT22;45074;52.764;6.896;2022-08-14T07:25:57;24.90;89.70
59303;DHT22;45074;52.764;6.896;2022-08-14T07:33:28;25.00;82.70
59303;DHT22;45074;52.764;6.896;2022-08-14T07:35:55;24.60;92.30
59303;DHT22;45074;52.764;6.896;2022-08-14T07:38:22;25.10;92.80
59303;DHT22;45074;52.764;6.896;2022-08-14T07:40:49;26.00;93.40
59303;DHT22;45074;52.764;6.896;2022-08-14T07:43:16;26.00;93.50
59303;DHT22;45074;52.764;6.896;2022-08-14T07:45:42;25.20;92.70
59303;DHT22;45074;52.764;6.896;2022-08-14T07:48:09;26.20;92.70
59303;DHT22;45074;52.764;6.896;2022-08-14T07:50:35;26.50;91.00
59303;DHT22;45074;52.764;6.896;2022-08-14T07:53:01;26.90;90.80
59303;DHT22;45074;52.764;6.896;2022-08-14T07:57:53;25.40;89.80
59303;DHT22;45074;52.764;6.896;2022-08-14T08:00:20;25.20;89.20
59303;DHT22;45074;52.764;6.896;2022-08-14T08:02:51;26.40;75.40
59303;DHT22;45074;52.764;6.896;2022-08-14T08:15:24;27.10;81.70
59303;DHT22;45074;52.764;6.896;2022-08-14T08:17:51;26.50;81.30
59303;DHT22;45074;52.764;6.896;2022-08-14T08:20:19;26.70;81.50
59303;DHT22;45074;52.764;6.896;2022-08-14T20:45:08;26.40;57.80
59303;DHT22;45074;52.764;6.896;2022-08-14T20:47:56;26.40;48.60
59303;DHT22;45074;52.764;6.896;2022-08-14T20:50:26;26.60;63.00
59303;DHT22;45074;52.764;6.896;2022-08-14T20:52:57;26.70;49.10
59303;DHT22;45074;52.764;6.896;2022-08-14T20:57:55;27.20;63.90
59303;DHT22;45074;52.764;6.896;2022-08-14T21:00:35;28.00;64.60
59303;DHT22;45074;52.764;6.896;2022-08-14T21:05:50;26.60;64.20
59303;DHT22;45074;52.764;6.896;2022-08-14T21:08:15;27.20;65.00
59303;DHT22;45074;52.764;6.896;2022-08-14T21:10:42;25.90;65.00
59303;DHT22;45074;52.764;6.896;2022-08-14T21:13:10;27.60;66.90
59303;DHT22;45074;52.764;6.896;2022-08-14T21:15:40;26.10;65.50
59303;DHT22;45074;52.764;6.896;2022-08-14T21:18:06;26.50;65.40
59303;DHT22;45074;52.764;6.896;2022-08-14T21:20:33;26.20;66.10
59303;DHT22;45074;52.764;6.896;2022-08-14T21:23:02;26.60;67.50
59303;DHT22;45074;52.764;6.896;2022-08-14T21:25:33;26.40;66.70
59303;DHT22;45074;52.764;6.896;2022-08-14T21:28:00;26.10;53.00
59303;DHT22;45074;52.764;6.896;2022-08-14T21:30:27;25.80;66.90
59303;DHT22;45074;52.764;6.896;2022-08-14T21:32:52;26.50;67.70
59303;DHT22;45074;52.764;6.896;2022-08-14T21:35:19;26.40;73.70
59303;DHT22;45074;52.764;6.896;2022-08-14T21:37:47;25.20;68.40
59303;DHT22;45074;52.764;6.896;2022-08-14T21:40:16;25.30;57.60
59303;DHT22;45074;52.764;6.896;2022-08-14T21:42:42;26.60;69.10
59303;DHT22;45074;52.764;6.896;2022-08-14T21:45:09;26.30;69.30
59303;DHT22;45074;52.764;6.896;2022-08-14T21:50:01;25.50;69.40
59303;DHT22;45074;52.764;6.896;2022-08-14T21:52:31;26.10;71.30
59303;DHT22;45074;52.764;6.896;2022-08-14T21:55:01;26.50;73.60
59303;DHT22;45074;52.764;6.896;2022-08-14T21:57:27;25.30;73.70
59303;DHT22;45074;52.764;6.896;2022-08-14T21:59:57;25.50;74.70
59303;DHT22;45074;52.764;6.896;2022-08-14T22:02:36;25.90;76.10
59303;DHT22;45074;52.764;6.896;2022-08-14T22:07:28;25.00;76.10
59303;DHT22;45074;52.764;6.896;2022-08-14T22:09:54;26.00;77.40
59303;DHT22;45074;52.764;6.896;2022-08-14T22:12:19;25.00;78.20
59303;DHT22;45074;52.764;6.896;2022-08-14T22:14:45;25.20;56.10
59303;DHT22;45074;52.764;6.896;2022-08-14T22:17:12;25.20;56.50
59303;DHT22;45074;52.764;6.896;2022-08-14T22:19:38;25.10;56.80
59303;DHT22;45074;52.764;6.896;2022-08-14T22:22:04;25.10;57.00
59303;DHT22;45074;52.764;6.896;2022-08-14T22:24:29;25.40;90.20
59303;DHT22;45074;52.764;6.896;2022-08-14T22:26:56;25.10;91.70
59303;DHT22;45074;52.764;6.896;2022-08-14T22:29:22;25.10;90.10
59303;DHT22;45074;52.764;6.896;2022-08-14T22:31:47;25.10;78.30
59303;DHT22;45074;52.764;6.896;2022-08-14T22:34:14;24.90;63.40
59303;DHT22;45074;52.764;6.896;2022-08-14T22:36:40;24.90;58.50
59303;DHT22;45074;52.764;6.896;2022-08-14T22:39:22;24.80;58.70
59303;DHT22;45074;52.764;6.896;2022-08-14T22:41:48;24.80;58.80
59303;DHT22;45074;52.764;6.896;2022-08-14T22:44:22;24.80;59.10
59303;DHT22;45074;52.764;6.896;2022-08-14T22:46:49;24.70;59.50
59303;DHT22;45074;52.764;6.896;2022-08-14T22:49:17;24.70;59.60
59303;DHT22;45074;52.764;6.896;2022-08-14T22:51:43;24.60;59.70
59303;DHT22;45074;52.764;6.896;2022-08-14T22:54:08;24.40;86.60
59303;DHT22;45074;52.764;6.896;2022-08-14T22:56:34;24.50;60.10
59303;DHT22;45074;52.764;6.896;2022-08-14T22:59:03;24.50;60.50
59303;DHT22;45074;52.764;6.896;2022-08-14T23:03:58;24.40;61.00
59303;DHT22;45074;52.764;6.896;2022-08-14T23:06:25;24.30;61.30
59303;DHT22;45074;52.764;6.896;2022-08-14T23:08:51;24.30;61.40
59303;DHT22;45074;52.764;6.896;2022-08-14T23:11:17;24.10;92.20
59303;DHT22;45074;52.764;6.896;2022-08-14T23:13:44;24.30;61.80
59303;DHT22;45074;52.764;6.896;2022-08-14T23:16:10;24.30;62.00
59303;DHT22;45074;52.764;6.896;2022-08-14T23:18:36;24.30;62.20
59303;DHT22;45074;52.764;6.896;2022-08-14T23:21:07;24.30;62.20
59303;DHT22;45074;52.764;6.896;2022-08-14T23:23:35;24.20;62.40
59303;DHT22;45074;52.764;6.896;2022-08-14T23:26:01;24.20;62.70
59303;DHT22;45074;52.764;6.896;2022-08-14T23:28:31;24.20;63.30
59303;DHT22;45074;52.764;6.896;2022-08-14T23:30:57;24.10;63.30
59303;DHT22;45074;52.764;6.896;2022-08-14T23:33:23;24.10;63.40
59303;DHT22;45074;52.764;6.896;2022-08-14T23:35:50;24.10;63.60
59303;DHT22;45074;52.764;6.896;2022-08-14T23:38:16;24.00;63.80
59303;DHT22;45074;52.764;6.896;2022-08-14T23:40:42;24.00;63.90
59303;DHT22;45074;52.764;6.896;2022-08-14T23:43:14;24.10;64.00
59303;DHT22;45074;52.764;6.896;2022-08-14T23:45:45;24.00;64.20
59303;DHT22;45074;52.764;6.896;2022-08-14T23:48:13;24.00;64.80
59303;DHT22;45074;52.764;6.896;2022-08-14T23:50:40;23.90;64.90
59303;DHT22;45074;52.764;6.896;2022-08-14T23:53:25;23.90;65.20
59303;DHT22;45074;52.764;6.896;2022-08-14T23:55:54;23.90;65.50
59303;DHT22;45074;52.764;6.896;2022-08-14T23:58:20;23.90;65.60
